sensor_id;sensor_type;location;lat;lon;timestamp;P1;durP1;ratioP1;P2;durP2;ratioP2
24173;SDS011;12324;48.146;11.502;2023-02-28T00:01:05;11.23;;;4.93;;
24173;SDS011;12324;48.146;11.502;2023-02-28T00:03:33;11.50;;;5.28;;
24173;SDS011;12324;48.146;11.502;2023-02-28T00:06:02;13.05;;;5.35;;
24173;SDS011;12324;48.146;11.502;2023-02-28T00:08:30;12.63;;;5.15;;
24173;SDS011;12324;48.146;11.502;2023-02-28T00:11:00;13.70;;;5.40;;
24173;SDS011;12324;48.146;11.502;2023-02-28T00:13:27;11.45;;;5.32;;
24173;SDS011;12324;48.146;11.502;2023-02-28T00:15:58;12.02;;;5.10;;
24173;SDS011;12324;48.146;11.502;2023-02-28T00:18:26;11.43;;;5.10;;
24173;SDS011;12324;48.146;11.502;2023-02-28T00:20:57;11.27;;;5.28;;
24173;SDS011;12324;48.146;11.502;2023-02-28T00:23:24;11.77;;;5.35;;
24173;SDS011;12324;48.146;11.502;2023-02-28T00:25:51;19.20;;;5.90;;
24173;SDS011;12324;48.146;11.502;2023-02-28T00:28:18;11.70;;;5.15;;
24173;SDS011;12324;48.146;11.502;2023-02-28T00:30:45;12.65;;;5.75;;
24173;SDS011;12324;48.146;11.502;2023-02-28T00:33:12;11.80;;;5.47;;
24173;SDS011;12324;48.146;11.502;2023-02-28T00:35:39;13.65;;;5.53;;
24173;SDS011;12324;48.146;11.502;2023-02-28T00:38:07;13.23;;;5.47;;
24173;SDS011;12324;48.146;11.502;2023-02-28T00:40:34;11.93;;;5.80;;
24173;SDS011;12324;48.146;11.502;2023-02-28T00:43:01;11.63;;;5.55;;
24173;SDS011;12324;48.146;11.502;2023-02-28T00:45:30;12.60;;;5.65;;
24173;SDS011;12324;48.146;11.502;2023-02-28T00:47:57;12.05;;;5.78;;
24173;SDS011;12324;48.146;11.502;2023-02-28T00:50:24;13.80;;;5.63;;
24173;SDS011;12324;48.146;11.502;2023-02-28T00:52:51;13.18;;;5.57;;
24173;SDS011;12324;48.146;11.502;2023-02-28T00:55:18;13.68;;;5.68;;
24173;SDS011;12324;48.146;11.502;2023-02-28T00:57:45;10.80;;;5.45;;
24173;SDS011;12324;48.146;11.502;2023-02-28T01:00:12;12.93;;;5.70;;
24173;SDS011;12324;48.146;11.502;2023-02-28T01:02:40;14.27;;;5.75;;
24173;SDS011;12324;48.146;11.502;2023-02-28T01:05:07;12.73;;;5.68;;
24173;SDS011;12324;48.146;11.502;2023-02-28T01:07:34;14.82;;;5.95;;
24173;SDS011;12324;48.146;11.502;2023-02-28T01:10:01;14.63;;;5.97;;
24173;SDS011;12324;48.146;11.502;2023-02-28T01:12:28;12.88;;;5.55;;
24173;SDS011;12324;48.146;11.502;2023-02-28T01:14:56;13.60;;;6.38;;
24173;SDS011;12324;48.146;11.502;2023-02-28T01:17:23;12.90;;;5.65;;
24173;SDS011;12324;48.146;11.502;2023-02-28T01:19:53;14.65;;;5.28;;
24173;SDS011;12324;48.146;11.502;2023-02-28T01:22:20;11.50;;;5.70;;
24173;SDS011;12324;48.146;11.502;2023-02-28T01:24:47;13.57;;;6.13;;
24173;SDS011;12324;48.146;11.502;2023-02-28T01:27:14;12.38;;;6.15;;
24173;SDS011;12324;48.146;11.502;2023-02-28T01:29:41;14.30;;;6.50;;
24173;SDS011;12324;48.146;11.502;2023-02-28T01:32:08;17.23;;;6.30;;
24173;SDS011;12324;48.146;11.502;2023-02-28T01:34:36;15.10;;;6.22;;
24173;SDS011;12324;48.146;11.502;2023-02-28T01:37:03;12.40;;;5.82;;
24173;SDS011;12324;48.146;11.502;2023-02-28T01:39:30;13.68;;;6.00;;
24173;SDS011;12324;48.146;11.502;2023-02-28T01:41:57;15.30;;;6.35;;
24173;SDS011;12324;48.146;11.502;2023-02-28T01:47:10;14.50;;;6.07;;
24173;SDS011;12324;48.146;11.502;2023-02-28T01:49:37;14.52;;;6.03;;
24173;SDS011;12324;48.146;11.502;2023-02-28T01:52:04;14.43;;;6.55;;
24173;SDS011;12324;48.146;11.502;2023-02-28T01:54:32;15.35;;;6.25;;
24173;SDS011;12324;48.146;11.502;2023-02-28T01:57:04;13.13;;;5.97;;
24173;SDS011;12324;48.146;11.502;2023-02-28T01:59:33;17.02;;;6.75;;
24173;SDS011;12324;48.146;11.502;2023-02-28T02:02:02;13.63;;;6.82;;
24173;SDS011;12324;48.146;11.502;2023-02-28T02:04:33;16.15;;;6.65;;
24173;SDS011;12324;48.146;11.502;2023-02-28T02:07:02;15.47;;;6.80;;
24173;SDS011;12324;48.146;11.502;2023-02-28T02:09:30;15.32;;;6.10;;
24173;SDS011;12324;48.146;11.502;2023-02-28T02:11:57;15.60;;;6.40;;
24173;SDS011;12324;48.146;11.502;2023-02-28T02:14:37;15.52;;;6.95;;
24173;SDS011;12324;48.146;11.502;2023-02-28T02:17:10;13.43;;;6.25;;
24173;SDS011;12324;48.146;11.502;2023-02-28T02:32:43;14.77;;;6.75;;
24173;SDS011;12324;48.146;11.502;2023-02-28T02:35:14;13.55;;;6.45;;
24173;SDS011;12324;48.146;11.502;2023-02-28T02:38:47;14.23;;;6.28;;
24173;SDS011;12324;48.146;11.502;2023-02-28T02:40:46;14.90;;;7.43;;
24173;SDS011;12324;48.146;11.502;2023-02-28T02:43:19;13.90;;;6.18;;
24173;SDS011;12324;48.146;11.502;2023-02-28T02:45:48;14.32;;;6.90;;
24173;SDS011;12324;48.146;11.502;2023-02-28T02:48:16;14.50;;;6.93;;
24173;SDS011;12324;48.146;11.502;2023-02-28T02:50:46;16.13;;;7.00;;
24173;SDS011;12324;48.146;11.502;2023-02-28T02:53:15;16.50;;;7.43;;
24173;SDS011;12324;48.146;11.502;2023-02-28T02:55:44;14.95;;;7.43;;
24173;SDS011;12324;48.146;11.502;2023-02-28T02:58:15;14.10;;;6.55;;
24173;SDS011;12324;48.146;11.502;2023-02-28T03:00:45;14.52;;;7.22;;
24173;SDS011;12324;48.146;11.502;2023-02-28T03:03:14;14.80;;;7.05;;
24173;SDS011;12324;48.146;11.502;2023-02-28T03:05:50;15.93;;;7.30;;
24173;SDS011;12324;48.146;11.502;2023-02-28T03:08:17;15.18;;;7.28;;
24173;SDS011;12324;48.146;11.502;2023-02-28T03:10:45;14.88;;;7.05;;
24173;SDS011;12324;48.146;11.502;2023-02-28T03:18:29;16.92;;;7.47;;
24173;SDS011;12324;48.146;11.502;2023-02-28T03:24:18;17.17;;;7.85;;
24173;SDS011;12324;48.146;11.502;2023-02-28T03:26:22;15.63;;;8.00;;
24173;SDS011;12324;48.146;11.502;2023-02-28T03:29:04;16.45;;;7.63;;
24173;SDS011;12324;48.146;11.502;2023-02-28T03:34:12;17.05;;;8.38;;
24173;SDS011;12324;48.146;11.502;2023-02-28T03:36:41;16.92;;;8.00;;
24173;SDS011;12324;48.146;11.502;2023-02-28T03:39:15;16.90;;;8.90;;
24173;SDS011;12324;48.146;11.502;2023-02-28T03:41:51;17.40;;;8.50;;
24173;SDS011;12324;48.146;11.502;2023-02-28T03:44:21;17.33;;;8.32;;
24173;SDS011;12324;48.146;11.502;2023-02-28T03:46:54;18.48;;;9.18;;
24173;SDS011;12324;48.146;11.502;2023-02-28T03:49:28;17.25;;;8.70;;
24173;SDS011;12324;48.146;11.502;2023-02-28T03:51:58;18.63;;;8.77;;
24173;SDS011;12324;48.146;11.502;2023-02-28T03:54:31;18.67;;;9.27;;
24173;SDS011;12324;48.146;11.502;2023-02-28T03:56:59;16.38;;;9.43;;
24173;SDS011;12324;48.146;11.502;2023-02-28T03:59:34;18.33;;;8.77;;
24173;SDS011;12324;48.146;11.502;2023-02-28T04:02:01;18.30;;;9.93;;
24173;SDS011;12324;48.146;11.502;2023-02-28T04:04:29;18.85;;;9.55;;
24173;SDS011;12324;48.146;11.502;2023-02-28T04:07:08;17.83;;;9.48;;
24173;SDS011;12324;48.146;11.502;2023-02-28T04:09:35;19.40;;;10.05;;
24173;SDS011;12324;48.146;11.502;2023-02-28T04:12:02;18.60;;;8.40;;
24173;SDS011;12324;48.146;11.502;2023-02-28T04:14:29;24.48;;;9.52;;
24173;SDS011;12324;48.146;11.502;2023-02-28T04:16:56;17.73;;;9.20;;
24173;SDS011;12324;48.146;11.502;2023-02-28T04:19:23;19.17;;;9.77;;
24173;SDS011;12324;48.146;11.502;2023-02-28T04:21:51;18.50;;;10.10;;
24173;SDS011;12324;48.146;11.502;2023-02-28T04:24:20;19.48;;;10.13;;
24173;SDS011;12324;48.146;11.502;2023-02-28T04:26:48;21.20;;;10.10;;
24173;SDS011;12324;48.146;11.502;2023-02-28T04:29:20;20.00;;;9.65;;
24173;SDS011;12324;48.146;11.502;2023-02-28T04:31:47;18.05;;;9.90;;
24173;SDS011;12324;48.146;11.502;2023-02-28T04:34:14;20.27;;;9.98;;
24173;SDS011;12324;48.146;11.502;2023-02-28T04:36:42;22.67;;;10.00;;
24173;SDS011;12324;48.146;11.502;2023-02-28T04:39:09;26.20;;;10.15;;
24173;SDS011;12324;48.146;11.502;2023-02-28T04:41:36;21.42;;;10.05;;
24173;SDS011;12324;48.146;11.502;2023-02-28T04:44:03;19.60;;;11.15;;
24173;SDS011;12324;48.146;11.502;2023-02-28T04:46:30;22.00;;;11.30;;
24173;SDS011;12324;48.146;11.502;2023-02-28T04:48:57;20.55;;;10.68;;
24173;SDS011;12324;48.146;11.502;2023-02-28T04:51:25;25.13;;;12.20;;
24173;SDS011;12324;48.146;11.502;2023-02-28T04:53:52;20.27;;;10.10;;
24173;SDS011;12324;48.146;11.502;2023-02-28T04:56:20;19.60;;;10.32;;
24173;SDS011;12324;48.146;11.502;2023-02-28T04:58:47;18.83;;;10.45;;
24173;SDS011;12324;48.146;11.502;2023-02-28T05:01:24;20.40;;;11.25;;
24173;SDS011;12324;48.146;11.502;2023-02-28T05:03:53;22.58;;;11.77;;
24173;SDS011;12324;48.146;11.502;2023-02-28T05:06:21;19.92;;;11.27;;
24173;SDS011;12324;48.146;11.502;2023-02-28T05:08:49;21.88;;;11.77;;
24173;SDS011;12324;48.146;11.502;2023-02-28T05:11:21;22.83;;;12.10;;
24173;SDS011;12324;48.146;11.502;2023-02-28T05:13:48;26.20;;;12.85;;
24173;SDS011;12324;48.146;11.502;2023-02-28T05:16:16;21.92;;;13.05;;
24173;SDS011;12324;48.146;11.502;2023-02-28T05:18:43;22.77;;;13.18;;
24173;SDS011;12324;48.146;11.502;2023-02-28T05:21:30;23.70;;;13.30;;
24173;SDS011;12324;48.146;11.502;2023-02-28T05:24:00;21.58;;;12.43;;
24173;SDS011;12324;48.146;11.502;2023-02-28T05:26:27;22.92;;;13.98;;
24173;SDS011;12324;48.146;11.502;2023-02-28T05:28:55;22.27;;;12.57;;
24173;SDS011;12324;48.146;11.502;2023-02-28T05:31:22;21.38;;;12.70;;
24173;SDS011;12324;48.146;11.502;2023-02-28T05:33:49;24.77;;;14.43;;
24173;SDS011;12324;48.146;11.502;2023-02-28T05:36:16;26.73;;;14.65;;
24173;SDS011;12324;48.146;11.502;2023-02-28T05:38:45;25.02;;;12.90;;
24173;SDS011;12324;48.146;11.502;2023-02-28T05:41:12;24.90;;;13.27;;
24173;SDS011;12324;48.146;11.502;2023-02-28T05:43:39;25.77;;;13.95;;
24173;SDS011;12324;48.146;11.502;2023-02-28T05:46:07;22.63;;;14.23;;
24173;SDS011;12324;48.146;11.502;2023-02-28T05:48:35;23.85;;;14.63;;
24173;SDS011;12324;48.146;11.502;2023-02-28T05:51:03;24.42;;;15.60;;
24173;SDS011;12324;48.146;11.502;2023-02-28T05:53:30;23.88;;;15.65;;
24173;SDS011;12324;48.146;11.502;2023-02-28T05:55:58;25.30;;;15.80;;
24173;SDS011;12324;48.146;11.502;2023-02-28T05:58:25;25.23;;;15.10;;
24173;SDS011;12324;48.146;11.502;2023-02-28T06:00:57;22.30;;;13.52;;
24173;SDS011;12324;48.146;11.502;2023-02-28T06:03:24;25.98;;;15.88;;
24173;SDS011;12324;48.146;11.502;2023-02-28T06:05:51;28.77;;;15.93;;
24173;SDS011;12324;48.146;11.502;2023-02-28T06:08:18;24.83;;;16.20;;
24173;SDS011;12324;48.146;11.502;2023-02-28T06:10:45;33.28;;;17.45;;
24173;SDS011;12324;48.146;11.502;2023-02-28T06:13:13;25.63;;;16.73;;
24173;SDS011;12324;48.146;11.502;2023-02-28T06:15:40;28.20;;;15.68;;
24173;SDS011;12324;48.146;11.502;2023-02-28T06:18:07;26.52;;;16.10;;
24173;SDS011;12324;48.146;11.502;2023-02-28T06:20:34;24.23;;;16.42;;
24173;SDS011;12324;48.146;11.502;2023-02-28T06:23:02;23.70;;;15.15;;
24173;SDS011;12324;48.146;11.502;2023-02-28T06:25:29;27.25;;;16.63;;
24173;SDS011;12324;48.146;11.502;2023-02-28T06:27:56;33.13;;;19.23;;
24173;SDS011;12324;48.146;11.502;2023-02-28T06:30:23;28.33;;;17.23;;
24173;SDS011;12324;48.146;11.502;2023-02-28T06:32:53;27.45;;;16.95;;
24173;SDS011;12324;48.146;11.502;2023-02-28T06:35:20;30.95;;;18.15;;
24173;SDS011;12324;48.146;11.502;2023-02-28T06:37:47;27.77;;;19.00;;
24173;SDS011;12324;48.146;11.502;2023-02-28T06:40:14;33.42;;;18.70;;
24173;SDS011;12324;48.146;11.502;2023-02-28T06:42:42;29.52;;;17.63;;
24173;SDS011;12324;48.146;11.502;2023-02-28T06:45:09;29.98;;;17.80;;
24173;SDS011;12324;48.146;11.502;2023-02-28T06:47:37;26.08;;;17.42;;
24173;SDS011;12324;48.146;11.502;2023-02-28T06:50:05;27.52;;;17.20;;
24173;SDS011;12324;48.146;11.502;2023-02-28T06:52:32;26.92;;;16.60;;
24173;SDS011;12324;48.146;11.502;2023-02-28T06:55:02;28.40;;;18.45;;
24173;SDS011;12324;48.146;11.502;2023-02-28T06:57:30;28.05;;;18.08;;
24173;SDS011;12324;48.146;11.502;2023-02-28T07:00:00;30.45;;;18.90;;
24173;SDS011;12324;48.146;11.502;2023-02-28T07:02:29;27.23;;;18.85;;
24173;SDS011;12324;48.146;11.502;2023-02-28T07:04:57;28.23;;;17.70;;
24173;SDS011;12324;48.146;11.502;2023-02-28T07:07:24;28.90;;;18.92;;
24173;SDS011;12324;48.146;11.502;2023-02-28T07:09:51;33.63;;;18.77;;
24173;SDS011;12324;48.146;11.502;2023-02-28T07:12:18;28.05;;;18.73;;
24173;SDS011;12324;48.146;11.502;2023-02-28T07:14:45;29.13;;;19.23;;
24173;SDS011;12324;48.146;11.502;2023-02-28T07:17:12;30.20;;;19.05;;
24173;SDS011;12324;48.146;11.502;2023-02-28T07:19:40;27.67;;;19.20;;
24173;SDS011;12324;48.146;11.502;2023-02-28T07:22:07;31.15;;;19.90;;
24173;SDS011;12324;48.146;11.502;2023-02-28T07:24:34;27.52;;;19.48;;
24173;SDS011;12324;48.146;11.502;2023-02-28T07:27:01;29.45;;;19.10;;
24173;SDS011;12324;48.146;11.502;2023-02-28T07:29:29;29.55;;;19.02;;
24173;SDS011;12324;48.146;11.502;2023-02-28T07:31:56;30.35;;;20.30;;
24173;SDS011;12324;48.146;11.502;2023-02-28T07:34:23;32.08;;;19.77;;
24173;SDS011;12324;48.146;11.502;2023-02-28T07:36:55;30.08;;;21.38;;
24173;SDS011;12324;48.146;11.502;2023-02-28T07:39:22;27.42;;;18.55;;
24173;SDS011;12324;48.146;11.502;2023-02-28T07:41:49;32.47;;;19.73;;
24173;SDS011;12324;48.146;11.502;2023-02-28T07:44:16;28.92;;;17.83;;
24173;SDS011;12324;48.146;11.502;2023-02-28T07:46:43;32.67;;;18.98;;
24173;SDS011;12324;48.146;11.502;2023-02-28T07:49:10;30.65;;;20.63;;
24173;SDS011;12324;48.146;11.502;2023-02-28T07:51:37;30.10;;;19.15;;
24173;SDS011;12324;48.146;11.502;2023-02-28T07:54:04;28.83;;;19.58;;
24173;SDS011;12324;48.146;11.502;2023-02-28T07:56:31;37.25;;;21.80;;
24173;SDS011;12324;48.146;11.502;2023-02-28T07:58:58;27.45;;;19.60;;
24173;SDS011;12324;48.146;11.502;2023-02-28T08:01:25;30.13;;;20.20;;
24173;SDS011;12324;48.146;11.502;2023-02-28T08:03:53;29.23;;;20.20;;
24173;SDS011;12324;48.146;11.502;2023-02-28T08:06:21;29.38;;;19.73;;
24173;SDS011;12324;48.146;11.502;2023-02-28T08:08:49;26.52;;;17.95;;
24173;SDS011;12324;48.146;11.502;2023-02-28T08:11:16;32.05;;;20.48;;
24173;SDS011;12324;48.146;11.502;2023-02-28T08:13:44;28.90;;;19.20;;
24173;SDS011;12324;48.146;11.502;2023-02-28T08:16:12;34.90;;;21.33;;
24173;SDS011;12324;48.146;11.502;2023-02-28T08:18:43;30.17;;;19.88;;
24173;SDS011;12324;48.146;11.502;2023-02-28T08:21:10;32.60;;;20.10;;
24173;SDS011;12324;48.146;11.502;2023-02-28T08:23:38;28.42;;;18.63;;
24173;SDS011;12324;48.146;11.502;2023-02-28T08:26:05;29.35;;;19.67;;
24173;SDS011;12324;48.146;11.502;2023-02-28T08:28:32;31.45;;;20.00;;
24173;SDS011;12324;48.146;11.502;2023-02-28T08:31:00;32.28;;;20.20;;
24173;SDS011;12324;48.146;11.502;2023-02-28T08:33:27;26.92;;;20.13;;
24173;SDS011;12324;48.146;11.502;2023-02-28T08:35:55;30.80;;;20.17;;
24173;SDS011;12324;48.146;11.502;2023-02-28T08:38:23;27.85;;;19.20;;
24173;SDS011;12324;48.146;11.502;2023-02-28T08:40:50;31.65;;;21.13;;
24173;SDS011;12324;48.146;11.502;2023-02-28T08:43:17;30.27;;;21.00;;
24173;SDS011;12324;48.146;11.502;2023-02-28T08:45:44;30.13;;;20.77;;
24173;SDS011;12324;48.146;11.502;2023-02-28T08:48:11;29.83;;;19.92;;
24173;SDS011;12324;48.146;11.502;2023-02-28T08:50:39;29.25;;;20.48;;
24173;SDS011;12324;48.146;11.502;2023-02-28T08:53:06;29.67;;;19.45;;
24173;SDS011;12324;48.146;11.502;2023-02-28T08:55:33;28.65;;;19.00;;
24173;SDS011;12324;48.146;11.502;2023-02-28T08:58:00;28.77;;;19.92;;
24173;SDS011;12324;48.146;11.502;2023-02-28T09:00:27;31.77;;;20.58;;
24173;SDS011;12324;48.146;11.502;2023-02-28T09:02:54;32.47;;;20.17;;
24173;SDS011;12324;48.146;11.502;2023-02-28T09:05:21;33.95;;;20.13;;
24173;SDS011;12324;48.146;11.502;2023-02-28T09:07:49;31.92;;;21.10;;
24173;SDS011;12324;48.146;11.502;2023-02-28T09:10:16;28.52;;;19.40;;
24173;SDS011;12324;48.146;11.502;2023-02-28T09:12:43;29.60;;;18.90;;
24173;SDS011;12324;48.146;11.502;2023-02-28T09:15:12;28.13;;;18.40;;
24173;SDS011;12324;48.146;11.502;2023-02-28T09:17:39;27.38;;;17.60;;
24173;SDS011;12324;48.146;11.502;2023-02-28T09:20:07;27.83;;;17.92;;
24173;SDS011;12324;48.146;11.502;2023-02-28T09:22:34;28.17;;;18.50;;
24173;SDS011;12324;48.146;11.502;2023-02-28T09:25:02;28.05;;;19.20;;
24173;SDS011;12324;48.146;11.502;2023-02-28T09:27:29;32.08;;;18.77;;
24173;SDS011;12324;48.146;11.502;2023-02-28T09:29:56;27.73;;;19.25;;
24173;SDS011;12324;48.146;11.502;2023-02-28T09:32:23;27.23;;;17.15;;
24173;SDS011;12324;48.146;11.502;2023-02-28T09:34:50;29.52;;;19.92;;
24173;SDS011;12324;48.146;11.502;2023-02-28T09:37:17;34.03;;;17.95;;
24173;SDS011;12324;48.146;11.502;2023-02-28T09:39:44;27.45;;;17.83;;
24173;SDS011;12324;48.146;11.502;2023-02-28T09:42:17;26.73;;;17.23;;
24173;SDS011;12324;48.146;11.502;2023-02-28T09:44:45;22.33;;;14.52;;
24173;SDS011;12324;48.146;11.502;2023-02-28T09:47:18;29.58;;;17.92;;
24173;SDS011;12324;48.146;11.502;2023-02-28T09:49:48;26.02;;;18.13;;
24173;SDS011;12324;48.146;11.502;2023-02-28T09:52:17;29.38;;;18.38;;
24173;SDS011;12324;48.146;11.502;2023-02-28T09:54:45;26.92;;;17.10;;
24173;SDS011;12324;48.146;11.502;2023-02-28T09:57:25;27.33;;;18.05;;
24173;SDS011;12324;48.146;11.502;2023-02-28T10:00:15;28.33;;;17.40;;
24173;SDS011;12324;48.146;11.502;2023-02-28T10:05:33;28.83;;;19.27;;
24173;SDS011;12324;48.146;11.502;2023-02-28T10:08:19;30.25;;;19.52;;
24173;SDS011;12324;48.146;11.502;2023-02-28T10:10:51;30.42;;;18.65;;
24173;SDS011;12324;48.146;11.502;2023-02-28T10:13:40;31.20;;;19.65;;
24173;SDS011;12324;48.146;11.502;2023-02-28T10:16:14;27.67;;;18.60;;
24173;SDS011;12324;48.146;11.502;2023-02-28T10:18:53;25.17;;;17.15;;
24173;SDS011;12324;48.146;11.502;2023-02-28T10:21:28;28.75;;;18.67;;
24173;SDS011;12324;48.146;11.502;2023-02-28T10:23:59;27.23;;;17.23;;
24173;SDS011;12324;48.146;11.502;2023-02-28T10:26:29;27.67;;;18.02;;
24173;SDS011;12324;48.146;11.502;2023-02-28T10:28:57;25.85;;;17.30;;
24173;SDS011;12324;48.146;11.502;2023-02-28T10:31:24;26.95;;;17.65;;
24173;SDS011;12324;48.146;11.502;2023-02-28T10:33:51;26.38;;;17.85;;
24173;SDS011;12324;48.146;11.502;2023-02-28T10:36:19;26.50;;;18.10;;
24173;SDS011;12324;48.146;11.502;2023-02-28T10:38:47;25.83;;;17.38;;
24173;SDS011;12324;48.146;11.502;2023-02-28T10:41:17;25.45;;;16.80;;
24173;SDS011;12324;48.146;11.502;2023-02-28T10:43:44;25.10;;;17.20;;
24173;SDS011;12324;48.146;11.502;2023-02-28T10:46:15;26.10;;;17.58;;
24173;SDS011;12324;48.146;11.502;2023-02-28T10:49:03;29.90;;;17.02;;
24173;SDS011;12324;48.146;11.502;2023-02-28T10:51:34;28.58;;;17.50;;
24173;SDS011;12324;48.146;11.502;2023-02-28T10:54:01;25.13;;;15.80;;
24173;SDS011;12324;48.146;11.502;2023-02-28T10:56:29;24.00;;;16.35;;
24173;SDS011;12324;48.146;11.502;2023-02-28T11:01:36;23.42;;;15.85;;
24173;SDS011;12324;48.146;11.502;2023-02-28T11:06:57;26.23;;;17.08;;
24173;SDS011;12324;48.146;11.502;2023-02-28T11:09:27;26.98;;;17.58;;
24173;SDS011;12324;48.146;11.502;2023-02-28T11:11:55;23.20;;;15.20;;
24173;SDS011;12324;48.146;11.502;2023-02-28T11:14:27;26.50;;;17.05;;
24173;SDS011;12324;48.146;11.502;2023-02-28T11:16:55;28.20;;;18.35;;
24173;SDS011;12324;48.146;11.502;2023-02-28T11:19:24;26.00;;;16.73;;
24173;SDS011;12324;48.146;11.502;2023-02-28T11:21:56;26.83;;;16.30;;
24173;SDS011;12324;48.146;11.502;2023-02-28T11:24:27;24.13;;;15.52;;
24173;SDS011;12324;48.146;11.502;2023-02-28T11:26:55;27.73;;;16.08;;
24173;SDS011;12324;48.146;11.502;2023-02-28T11:29:29;28.15;;;17.05;;
24173;SDS011;12324;48.146;11.502;2023-02-28T11:34:43;25.45;;;16.02;;
24173;SDS011;12324;48.146;11.502;2023-02-28T11:37:12;29.02;;;17.83;;
24173;SDS011;12324;48.146;11.502;2023-02-28T11:39:40;25.75;;;17.13;;
24173;SDS011;12324;48.146;11.502;2023-02-28T11:42:20;27.45;;;15.80;;
24173;SDS011;12324;48.146;11.502;2023-02-28T11:47:32;24.98;;;15.80;;
24173;SDS011;12324;48.146;11.502;2023-02-28T11:50:15;30.70;;;17.63;;
24173;SDS011;12324;48.146;11.502;2023-02-28T11:55:54;25.17;;;16.20;;
24173;SDS011;12324;48.146;11.502;2023-02-28T11:58:28;27.20;;;16.58;;
24173;SDS011;12324;48.146;11.502;2023-02-28T12:01:03;26.33;;;16.05;;
24173;SDS011;12324;48.146;11.502;2023-02-28T12:11:13;24.88;;;17.00;;
24173;SDS011;12324;48.146;11.502;2023-02-28T12:13:50;24.95;;;15.63;;
24173;SDS011;12324;48.146;11.502;2023-02-28T12:26:43;23.80;;;14.52;;
24173;SDS011;12324;48.146;11.502;2023-02-28T12:29:24;24.58;;;15.38;;
24173;SDS011;12324;48.146;11.502;2023-02-28T12:34:36;25.48;;;14.02;;
24173;SDS011;12324;48.146;11.502;2023-02-28T12:37:06;22.02;;;13.82;;
24173;SDS011;12324;48.146;11.502;2023-02-28T12:39:38;25.80;;;15.43;;
24173;SDS011;12324;48.146;11.502;2023-02-28T12:42:24;22.63;;;14.80;;
24173;SDS011;12324;48.146;11.502;2023-02-28T12:47:30;24.25;;;14.65;;
24173;SDS011;12324;48.146;11.502;2023-02-28T12:50:07;22.85;;;14.57;;
24173;SDS011;12324;48.146;11.502;2023-02-28T12:52:40;27.83;;;14.65;;
24173;SDS011;12324;48.146;11.502;2023-02-28T12:55:31;21.92;;;14.95;;
24173;SDS011;12324;48.146;11.502;2023-02-28T13:00:28;22.02;;;13.88;;
24173;SDS011;12324;48.146;11.502;2023-02-28T13:05:29;21.13;;;12.50;;
24173;SDS011;12324;48.146;11.502;2023-02-28T13:08:03;21.67;;;13.63;;
24173;SDS011;12324;48.146;11.502;2023-02-28T13:13:01;21.23;;;12.45;;
24173;SDS011;12324;48.146;11.502;2023-02-28T13:15:30;18.92;;;12.00;;
24173;SDS011;12324;48.146;11.502;2023-02-28T13:18:01;19.83;;;12.70;;
24173;SDS011;12324;48.146;11.502;2023-02-28T13:20:35;21.45;;;14.00;;
24173;SDS011;12324;48.146;11.502;2023-02-28T13:23:02;23.60;;;13.88;;
24173;SDS011;12324;48.146;11.502;2023-02-28T13:28:02;22.67;;;13.88;;
24173;SDS011;12324;48.146;11.502;2023-02-28T13:35:46;23.08;;;13.45;;
24173;SDS011;12324;48.146;11.502;2023-02-28T13:38:24;22.85;;;13.57;;
24173;SDS011;12324;48.146;11.502;2023-02-28T13:40:51;21.65;;;13.57;;
24173;SDS011;12324;48.146;11.502;2023-02-28T13:43:18;20.83;;;14.00;;
24173;SDS011;12324;48.146;11.502;2023-02-28T13:46:04;27.33;;;13.80;;
24173;SDS011;12324;48.146;11.502;2023-02-28T13:48:32;25.70;;;13.68;;
24173;SDS011;12324;48.146;11.502;2023-02-28T13:50:59;23.73;;;13.50;;
24173;SDS011;12324;48.146;11.502;2023-02-28T13:53:41;22.80;;;14.27;;
24173;SDS011;12324;48.146;11.502;2023-02-28T13:56:22;22.25;;;13.85;;
24173;SDS011;12324;48.146;11.502;2023-02-28T13:58:55;23.77;;;14.43;;
24173;SDS011;12324;48.146;11.502;2023-02-28T14:01:42;22.63;;;13.70;;
24173;SDS011;12324;48.146;11.502;2023-02-28T14:06:58;20.25;;;12.95;;
24173;SDS011;12324;48.146;11.502;2023-02-28T14:09:37;21.52;;;12.95;;
24173;SDS011;12324;48.146;11.502;2023-02-28T14:17:19;26.13;;;15.80;;
24173;SDS011;12324;48.146;11.502;2023-02-28T14:19:46;23.23;;;14.52;;
24173;SDS011;12324;48.146;11.502;2023-02-28T14:27:36;23.43;;;11.43;;
24173;SDS011;12324;48.146;11.502;2023-02-28T14:32:50;21.90;;;14.70;;
24173;SDS011;12324;48.146;11.502;2023-02-28T14:37:51;16.33;;;10.80;;
24173;SDS011;12324;48.146;11.502;2023-02-28T14:40:28;21.65;;;13.65;;
24173;SDS011;12324;48.146;11.502;2023-02-28T14:43:00;23.92;;;14.18;;
24173;SDS011;12324;48.146;11.502;2023-02-28T14:45:31;22.27;;;13.27;;
24173;SDS011;12324;48.146;11.502;2023-02-28T14:47:58;22.90;;;13.15;;
24173;SDS011;12324;48.146;11.502;2023-02-28T14:50:29;21.92;;;13.98;;
24173;SDS011;12324;48.146;11.502;2023-02-28T14:52:56;24.88;;;13.93;;
24173;SDS011;12324;48.146;11.502;2023-02-28T14:55:26;22.42;;;13.98;;
24173;SDS011;12324;48.146;11.502;2023-02-28T14:57:56;21.42;;;13.80;;
24173;SDS011;12324;48.146;11.502;2023-02-28T15:00:27;21.45;;;13.85;;
24173;SDS011;12324;48.146;11.502;2023-02-28T15:02:58;23.90;;;13.40;;
24173;SDS011;12324;48.146;11.502;2023-02-28T15:05:27;24.75;;;13.45;;
24173;SDS011;12324;48.146;11.502;2023-02-28T15:08:06;19.63;;;12.27;;
24173;SDS011;12324;48.146;11.502;2023-02-28T15:10:34;20.35;;;12.70;;
24173;SDS011;12324;48.146;11.502;2023-02-28T15:13:02;21.73;;;13.13;;
24173;SDS011;12324;48.146;11.502;2023-02-28T15:15:49;21.58;;;13.13;;
24173;SDS011;12324;48.146;11.502;2023-02-28T15:21:02;17.27;;;10.63;;
24173;SDS011;12324;48.146;11.502;2023-02-28T15:23:29;18.67;;;11.95;;
24173;SDS011;12324;48.146;11.502;2023-02-28T15:25:57;23.17;;;12.75;;
24173;SDS011;12324;48.146;11.502;2023-02-28T15:28:24;22.50;;;12.25;;
24173;SDS011;12324;48.146;11.502;2023-02-28T15:31:01;20.85;;;12.75;;
24173;SDS011;12324;48.146;11.502;2023-02-28T15:33:29;21.33;;;12.98;;
24173;SDS011;12324;48.146;11.502;2023-02-28T15:36:12;19.15;;;10.75;;
24173;SDS011;12324;48.146;11.502;2023-02-28T15:38:40;23.45;;;13.90;;
24173;SDS011;12324;48.146;11.502;2023-02-28T15:41:16;19.42;;;11.55;;
24173;SDS011;12324;48.146;11.502;2023-02-28T15:43:47;23.27;;;12.77;;
24173;SDS011;12324;48.146;11.502;2023-02-28T15:46:14;19.65;;;12.05;;
24173;SDS011;12324;48.146;11.502;2023-02-28T15:53:59;20.25;;;12.55;;
24173;SDS011;12324;48.146;11.502;2023-02-28T15:56:28;20.63;;;12.18;;
24173;SDS011;12324;48.146;11.502;2023-02-28T15:59:06;20.05;;;12.63;;
24173;SDS011;12324;48.146;11.502;2023-02-28T16:01:34;21.83;;;12.73;;
24173;SDS011;12324;48.146;11.502;2023-02-28T16:04:03;22.88;;;13.88;;
24173;SDS011;12324;48.146;11.502;2023-02-28T16:06:32;24.35;;;13.75;;
24173;SDS011;12324;48.146;11.502;2023-02-28T16:08:59;21.50;;;12.60;;
24173;SDS011;12324;48.146;11.502;2023-02-28T16:11:26;28.45;;;13.30;;
24173;SDS011;12324;48.146;11.502;2023-02-28T16:13:54;23.27;;;13.25;;
24173;SDS011;12324;48.146;11.502;2023-02-28T16:16:22;23.63;;;15.40;;